Tropical Cyclones
[Index]
Main Index Home Page Stock Weather Photos Extreme Storms Discussion Storm News and Storm Chasing Reports Tropical Cyclones / Hurricanes / Typhoons Weather Data and Links Wild Fires / Bushfires Weather Observation Techniques Weather Picture Catalogue Tornado Pictures and Reports Stock Video Footage and DVDs for sale
Season 1975-1976 Tropical Cyclone WALLY Track Map
Season 1975-1976 Summaries: [BoM-AU] [JTWC-AU] [JTWC-SIO] [JTWC-SPAC] [JTWC-SH]
<<- Previous TC | BoM 1975-1976 Season | Next TC ->>

click for intensity scale information  Lat/long Grid: Show Hide

 Date Labels: Show Hide

Bureau of Meteorology Tropical Cyclone Data

Name: WALLY
Number: 554 / 197576_10

22 Feb 1976 16:00 UTC to 27 Feb 1976 16:00 UTC

    date/time    lat    long    hPa   cat  kts
1976-02-22 16   16.3   125.0    999                     
1976-02-22 19   16.4   124.5    997                     
1976-02-22 22   16.4   123.6    997                     
1976-02-23 01   16.3   122.8    997                     
1976-02-23 04   16.5   122.7    997                     
1976-02-23 07   16.9   122.2    996                     
1976-02-23 10   16.9   121.8    995    1                
1976-02-23 13   16.8   121.4    995    1                
1976-02-23 16   16.7   121.0    995    1                
1976-02-23 19   16.7   120.5    993    1                
1976-02-23 22   16.8   120.0    993    1                
1976-02-24 01   17.1   119.4    989    1                
1976-02-24 04   17.3   118.9    988    1                
1976-02-24 07   17.5   118.3    986    1                
1976-02-24 10   17.7   117.8    984    2                
1976-02-24 13   18.0   117.2    983    2                
1976-02-24 16   18.2   116.6    982    2                
1976-02-24 19   18.5   116.0    981    2                
1976-02-24 22   18.7   115.5    981    2                
1976-02-25 01   19.0   115.0    981    2                
1976-02-25 04   19.3   114.4    980    2                
1976-02-25 07   19.7   114.0    979    2                
1976-02-25 10   20.2   113.7    978    2                
1976-02-25 13   20.7   113.5    977    2                
1976-02-25 16   21.2   113.5    976    2                
1976-02-25 19   21.7   112.9    975    2                
1976-02-25 22   22.2   112.6    974    2                
1976-02-26 01   22.8   112.3    973    2                
1976-02-26 04   23.3   112.4    974    2                
1976-02-26 07   23.8   112.5    974    2                
1976-02-26 10   24.4   112.6    975    2                
1976-02-26 13   24.8   112.7    977    2                
1976-02-26 16   25.2   112.7    978    2                
1976-02-26 17   25.3   112.7                            
1976-02-26 19   25.8   112.8    979    2                
1976-02-26 22   26.4   113.0    980    2                
1976-02-27 01   26.9   113.5    981    2                
1976-02-27 04   27.9   113.6    983    2                
1976-02-27 07   28.7   114.0    985    2                
1976-02-27 10   29.5   115.1    988    1                
1976-02-27 13   30.1   116.0    996                     
1976-02-27 16   30.5   116.6   1002                     
Winds are 10-min average.

Tropical cyclone tracks developed by Michael Bath using data from the Bureau of Meteorology and Google Maps.


[Australian Severe Weather index] [Copyright Notice] [Email Contacts] [Search This Site] [Privacy Policy]
Document: tropical_cyclone_wally.htm Updated: 30 May 2013